createdAt,value
2018-07-09T00:00:00.159Z,0.00
2018-07-09T00:01:00.082Z,0.00
2018-07-09T00:01:59.973Z,0.00
2018-07-09T00:02:59.919Z,0.00
2018-07-09T00:03:59.832Z,0.00
2018-07-09T00:04:59.769Z,0.00
2018-07-09T00:05:59.679Z,0.00
2018-07-09T00:06:59.604Z,0.00
2018-07-09T00:07:59.530Z,0.00
2018-07-09T00:08:59.457Z,0.00
2018-07-09T00:09:59.382Z,0.00
2018-07-09T00:10:59.310Z,0.00
2018-07-09T00:11:59.235Z,0.00
2018-07-09T00:12:59.172Z,0.00
2018-07-09T00:13:59.092Z,0.00
2018-07-09T00:14:59.025Z,0.00
2018-07-09T00:15:58.942Z,0.00
2018-07-09T00:16:58.865Z,0.00
2018-07-09T00:17:58.797Z,0.00
2018-07-09T00:18:58.727Z,0.00
2018-07-09T00:19:58.646Z,0.00
2018-07-09T00:20:58.569Z,0.00
2018-07-09T00:21:58.501Z,0.00
2018-07-09T00:22:58.421Z,0.00
2018-07-09T00:23:58.353Z,0.00
2018-07-09T00:24:58.279Z,0.00
2018-07-09T00:25:58.198Z,0.00
2018-07-09T00:26:58.127Z,0.00
2018-07-09T00:27:58.053Z,0.00
2018-07-09T00:28:57.987Z,0.00
2018-07-09T00:29:57.903Z,0.00
2018-07-09T00:30:57.836Z,0.00
2018-07-09T00:31:57.761Z,0.00
2018-07-09T00:32:57.685Z,0.00
2018-07-09T00:33:57.605Z,0.00
2018-07-09T00:34:57.540Z,0.00
2018-07-09T00:35:57.478Z,0.00
2018-07-09T00:36:57.389Z,0.00
2018-07-09T00:37:57.315Z,0.00
2018-07-09T00:38:57.238Z,0.00
2018-07-09T00:39:57.178Z,0.00
2018-07-09T00:40:57.088Z,0.00
2018-07-09T00:41:57.025Z,0.00
2018-07-09T00:42:56.940Z,0.00
2018-07-09T00:43:56.871Z,0.00
2018-07-09T00:44:56.795Z,0.00
2018-07-09T00:45:56.717Z,0.00
2018-07-09T00:46:56.667Z,0.00
2018-07-09T00:47:56.568Z,0.00
2018-07-09T00:48:56.497Z,0.00
2018-07-09T00:49:56.424Z,0.00
2018-07-09T00:50:56.385Z,0.00
2018-07-09T00:51:56.276Z,0.00
2018-07-09T00:52:56.201Z,0.00
2018-07-09T00:53:56.123Z,0.00
2018-07-09T00:54:56.050Z,0.00
2018-07-09T00:55:55.976Z,0.00
2018-07-09T00:56:55.898Z,0.00
2018-07-09T00:57:55.825Z,0.00
2018-07-09T00:58:55.754Z,0.00
2018-07-09T00:59:55.678Z,0.00
2018-07-09T01:00:55.604Z,0.00
2018-07-09T01:01:55.531Z,0.00
2018-07-09T01:02:55.451Z,0.00
2018-07-09T01:03:55.375Z,0.00
2018-07-09T01:04:55.312Z,0.00
2018-07-09T01:05:55.227Z,0.00
2018-07-09T01:06:55.166Z,0.00
2018-07-09T01:07:55.080Z,0.00
2018-07-09T01:08:55.012Z,0.00
2018-07-09T01:09:54.932Z,0.00
2018-07-09T01:10:54.860Z,0.00
2018-07-09T01:11:54.793Z,0.00
2018-07-09T01:12:54.708Z,0.00
2018-07-09T01:13:54.654Z,0.00
2018-07-09T01:14:54.565Z,0.00
2018-07-09T01:15:54.487Z,0.00
2018-07-09T01:16:54.429Z,0.00
2018-07-09T01:17:54.340Z,0.00
2018-07-09T01:18:54.291Z,0.00
2018-07-09T01:19:54.187Z,0.00
2018-07-09T01:20:54.115Z,0.00
2018-07-09T01:21:54.047Z,0.00
2018-07-09T01:22:53.964Z,0.00
2018-07-09T01:23:53.897Z,0.00
2018-07-09T01:24:53.818Z,0.00
2018-07-09T01:25:53.743Z,0.00
2018-07-09T01:26:53.670Z,0.00
2018-07-09T01:27:53.599Z,0.00
2018-07-09T01:28:53.521Z,0.00
2018-07-09T01:29:53.446Z,0.00
2018-07-09T01:30:53.371Z,0.00
2018-07-09T01:31:53.298Z,0.00
2018-07-09T01:32:53.225Z,0.00
2018-07-09T01:33:53.166Z,0.00
2018-07-09T01:34:53.097Z,0.00
2018-07-09T01:35:53.007Z,0.00
2018-07-09T01:36:52.927Z,0.00
2018-07-09T01:37:52.855Z,0.00
2018-07-09T01:38:52.777Z,0.00
2018-07-09T01:39:52.703Z,0.00
2018-07-09T01:40:52.639Z,0.00
2018-07-09T01:41:52.560Z,0.00
2018-07-09T01:42:52.485Z,0.00
2018-07-09T01:43:52.407Z,0.00
2018-07-09T01:44:52.331Z,0.00
2018-07-09T01:45:52.255Z,0.00
2018-07-09T01:46:52.187Z,0.00
2018-07-09T01:47:52.106Z,0.00
2018-07-09T01:48:52.051Z,0.00
2018-07-09T01:49:51.963Z,0.00
2018-07-09T01:50:51.893Z,0.00
2018-07-09T01:51:51.811Z,0.00
2018-07-09T01:52:51.743Z,0.00
2018-07-09T01:53:51.666Z,0.00
2018-07-09T01:54:51.588Z,0.00
2018-07-09T01:55:51.521Z,0.00
2018-07-09T01:56:51.436Z,0.00
2018-07-09T01:57:51.359Z,0.00
2018-07-09T01:58:51.287Z,0.00
2018-07-09T01:59:51.212Z,0.00
2018-07-09T02:00:51.138Z,0.00
2018-07-09T02:01:51.064Z,0.00
2018-07-09T02:02:50.990Z,0.00
2018-07-09T02:03:50.912Z,0.00
2018-07-09T02:04:50.845Z,0.00
2018-07-09T02:05:50.763Z,0.00
2018-07-09T02:06:50.693Z,0.00
2018-07-09T02:07:50.616Z,0.00
2018-07-09T02:08:50.551Z,0.00
2018-07-09T02:09:50.467Z,0.00
2018-07-09T02:10:50.389Z,0.00
2018-07-09T02:11:50.318Z,0.00
2018-07-09T02:12:50.259Z,0.00
2018-07-09T02:13:50.166Z,0.00
2018-07-09T02:14:50.091Z,0.00
2018-07-09T02:15:50.021Z,0.00
2018-07-09T02:16:49.942Z,0.00
2018-07-09T02:17:49.879Z,0.00
2018-07-09T02:18:49.794Z,0.00
2018-07-09T02:19:49.717Z,0.00
2018-07-09T02:20:49.644Z,0.00
2018-07-09T02:21:49.575Z,0.00
2018-07-09T02:22:49.494Z,0.00
2018-07-09T02:23:49.439Z,0.00
2018-07-09T02:24:49.349Z,0.00
2018-07-09T02:25:49.266Z,0.00
2018-07-09T02:26:49.192Z,0.00
2018-07-09T02:27:49.120Z,0.00
2018-07-09T02:28:49.060Z,0.00
2018-07-09T02:29:48.969Z,0.00
2018-07-09T02:30:48.893Z,0.00
2018-07-09T02:31:48.825Z,0.00
2018-07-09T02:32:48.746Z,0.00
2018-07-09T02:33:48.685Z,0.00
2018-07-09T02:34:48.594Z,0.00
2018-07-09T02:35:48.528Z,0.00
2018-07-09T02:36:48.455Z,0.00
2018-07-09T02:37:48.371Z,0.00
2018-07-09T02:38:48.298Z,0.00
2018-07-09T02:39:48.221Z,0.00
2018-07-09T02:40:48.148Z,0.00
2018-07-09T02:41:48.085Z,0.00
2018-07-09T02:42:48.001Z,0.00
2018-07-09T02:43:47.934Z,4.00
2018-07-09T02:44:47.842Z,0.00
2018-07-09T02:45:47.776Z,0.00
2018-07-09T02:46:47.697Z,4.00
2018-07-09T02:47:47.627Z,4.00
2018-07-09T02:48:47.544Z,0.00
2018-07-09T02:49:47.475Z,4.00
2018-07-09T02:50:47.396Z,4.00
2018-07-09T02:51:47.322Z,4.00
2018-07-09T02:52:47.247Z,8.00
2018-07-09T02:53:47.190Z,8.00
2018-07-09T02:54:47.096Z,8.00
2018-07-09T02:55:47.019Z,8.00
2018-07-09T02:56:46.948Z,8.00
2018-07-09T02:57:46.868Z,12.00
2018-07-09T02:58:46.805Z,12.00
2018-07-09T02:59:46.719Z,16.00
2018-07-09T03:00:46.670Z,16.00
2018-07-09T03:01:46.569Z,20.00
2018-07-09T03:02:46.494Z,24.00
2018-07-09T03:03:46.423Z,24.00
2018-07-09T03:04:46.345Z,28.00
2018-07-09T03:05:46.274Z,32.00
2018-07-09T03:06:47.188Z,32.00
2018-07-09T03:07:46.177Z,40.00
2018-07-09T03:08:46.080Z,44.00
2018-07-09T03:09:46.040Z,48.00
2018-07-09T03:10:45.963Z,56.00
2018-07-09T03:11:45.880Z,60.00
2018-07-09T03:12:46.658Z,64.00
2018-07-09T03:13:45.702Z,72.00
2018-07-09T03:14:46.650Z,80.00
2018-07-09T03:15:46.158Z,88.00
2018-07-09T03:16:45.511Z,92.00
2018-07-09T03:17:45.433Z,104.00
2018-07-09T03:18:46.156Z,112.00
2018-07-09T03:19:45.284Z,120.00
2018-07-09T03:20:45.190Z,128.00
2018-07-09T03:21:45.133Z,140.00
2018-07-09T03:22:45.063Z,152.00
2018-07-09T03:23:44.985Z,160.00
2018-07-09T03:24:44.912Z,172.00
2018-07-09T03:25:44.839Z,184.00
2018-07-09T03:26:44.751Z,196.00
2018-07-09T03:27:44.688Z,208.00
2018-07-09T03:28:44.614Z,220.00
2018-07-09T03:29:44.569Z,232.00
2018-07-09T03:30:44.458Z,244.00
2018-07-09T03:31:44.392Z,260.00
2018-07-09T03:32:44.252Z,276.00
2018-07-09T03:33:44.227Z,288.00
2018-07-09T03:34:44.656Z,304.00
2018-07-09T03:35:44.079Z,316.00
2018-07-09T03:36:44.003Z,336.00
2018-07-09T03:37:43.927Z,348.00
2018-07-09T03:38:43.865Z,364.00
2018-07-09T03:39:43.779Z,380.00
2018-07-09T03:40:43.711Z,396.00
2018-07-09T03:41:43.622Z,416.00
2018-07-09T03:42:44.156Z,428.00
2018-07-09T03:43:43.478Z,444.00
2018-07-09T03:44:43.396Z,460.00
2018-07-09T03:45:43.353Z,480.00
2018-07-09T03:46:43.250Z,492.00
2018-07-09T03:47:43.179Z,512.00
2018-07-09T03:48:43.102Z,528.00
2018-07-09T03:49:42.992Z,544.00
2018-07-09T03:50:42.958Z,560.00
2018-07-09T03:51:42.860Z,576.00
2018-07-09T03:52:42.792Z,596.00
2018-07-09T03:53:42.731Z,612.00
2018-07-09T03:54:44.165Z,628.00
2018-07-09T03:55:42.573Z,628.00
2018-07-09T03:56:42.503Z,640.00
2018-07-09T03:57:43.170Z,660.00
2018-07-09T03:58:42.343Z,672.00
2018-07-09T03:59:44.162Z,688.00
2018-07-09T04:00:42.161Z,704.00
2018-07-09T04:01:42.117Z,716.00
2018-07-09T04:02:42.044Z,728.00
2018-07-09T04:03:41.960Z,744.00
2018-07-09T04:04:41.841Z,760.00
2018-07-09T04:05:41.755Z,776.00
2018-07-09T04:06:41.681Z,792.00
2018-07-09T04:07:41.608Z,808.00
2018-07-09T04:08:41.534Z,824.00
2018-07-09T04:09:41.457Z,836.00
2018-07-09T04:10:41.376Z,856.00
2018-07-09T04:11:41.306Z,868.00
2018-07-09T04:12:41.226Z,880.00
2018-07-09T04:13:41.155Z,896.00
2018-07-09T04:14:41.133Z,912.00
2018-07-09T04:15:41.013Z,928.00
2018-07-09T04:16:40.931Z,940.00
2018-07-09T04:17:40.855Z,956.00
2018-07-09T04:18:40.782Z,968.00
2018-07-09T04:19:40.722Z,988.00
2018-07-09T04:20:40.637Z,1004.00
2018-07-09T04:21:40.548Z,1020.00
2018-07-09T04:22:40.475Z,1036.00
2018-07-09T04:23:40.401Z,1052.00
2018-07-09T04:24:40.324Z,1080.00
2018-07-09T04:25:40.248Z,1132.00
2018-07-09T04:26:40.179Z,1156.00
2018-07-09T04:27:40.095Z,1252.00
2018-07-09T04:28:40.029Z,1304.00
2018-07-09T04:29:39.953Z,1340.00
2018-07-09T04:30:39.871Z,1376.00
2018-07-09T04:31:39.851Z,1408.00
2018-07-09T04:32:39.725Z,1432.00
2018-07-09T04:33:39.652Z,1456.00
2018-07-09T04:34:39.574Z,1488.00
2018-07-09T04:35:39.498Z,1516.00
2018-07-09T04:36:39.428Z,1532.00
2018-07-09T04:37:39.362Z,1540.00
2018-07-09T04:38:39.293Z,1560.00
2018-07-09T04:39:39.195Z,1604.00
2018-07-09T04:40:39.123Z,1652.00
2018-07-09T04:41:39.050Z,1684.00
2018-07-09T04:42:38.977Z,1696.00
2018-07-09T04:43:38.911Z,1700.00
2018-07-09T04:44:38.828Z,1704.00
2018-07-09T04:45:38.748Z,1708.00
2018-07-09T04:46:38.682Z,1712.00
2018-07-09T04:47:38.599Z,1724.00
2018-07-09T04:48:38.528Z,1744.00
2018-07-09T04:49:38.450Z,1764.00
2018-07-09T04:50:38.378Z,1784.00
2018-07-09T04:51:38.298Z,1800.00
2018-07-09T04:52:38.224Z,1816.00
2018-07-09T04:53:38.170Z,1836.00
2018-07-09T04:54:38.097Z,1860.00
2018-07-09T04:55:38.007Z,1876.00
2018-07-09T04:56:37.936Z,1884.00
2018-07-09T04:57:37.850Z,1896.00
2018-07-09T04:58:37.782Z,1908.00
2018-07-09T04:59:37.706Z,1916.00
2018-07-09T05:00:37.629Z,1932.00
2018-07-09T05:01:37.555Z,1952.00
2018-07-09T05:02:37.478Z,1968.00
2018-07-09T05:03:37.530Z,1988.00
2018-07-09T05:04:37.371Z,2004.00
2018-07-09T05:05:37.294Z,2028.00
2018-07-09T05:06:37.228Z,2052.00
2018-07-09T05:07:37.170Z,2068.00
2018-07-09T05:08:37.095Z,2084.00
2018-07-09T05:09:37.027Z,2100.00
2018-07-09T05:10:37.689Z,2112.00
2018-07-09T05:11:37.697Z,2120.00
2018-07-09T05:12:36.748Z,2140.00
2018-07-09T05:13:36.730Z,2160.00
2018-07-09T05:14:37.198Z,2172.00
2018-07-09T05:15:37.192Z,2192.00
2018-07-09T05:16:36.441Z,2212.00
2018-07-09T05:17:36.380Z,2228.00
2018-07-09T05:18:37.190Z,2248.00
2018-07-09T05:19:36.285Z,2260.00
2018-07-09T05:20:36.252Z,2280.00
2018-07-09T05:21:36.139Z,2296.00
2018-07-09T05:22:36.059Z,2316.00
2018-07-09T05:23:35.929Z,2336.00
2018-07-09T05:24:35.911Z,2352.00
2018-07-09T05:25:35.836Z,2364.00
2018-07-09T05:26:35.754Z,2380.00
2018-07-09T05:27:35.641Z,2396.00
2018-07-09T05:28:35.615Z,2412.00
2018-07-09T05:29:35.524Z,2428.00
2018-07-09T05:30:35.457Z,2444.00
2018-07-09T05:31:36.186Z,2456.00
2018-07-09T05:32:35.263Z,2464.00
2018-07-09T05:33:35.248Z,2480.00
2018-07-09T05:34:35.166Z,2492.00
2018-07-09T05:35:35.687Z,2496.00
2018-07-09T05:36:35.002Z,2500.00
2018-07-09T05:37:35.696Z,2512.00
2018-07-09T05:38:34.870Z,2516.00
2018-07-09T05:39:34.789Z,2524.00
2018-07-09T05:40:34.690Z,2540.00
2018-07-09T05:41:34.626Z,2544.00
2018-07-09T05:42:34.533Z,2556.00
2018-07-09T05:43:34.439Z,2564.00
2018-07-09T05:44:34.360Z,2568.00
2018-07-09T05:45:34.294Z,2572.00
2018-07-09T05:46:34.224Z,2588.00
2018-07-09T05:47:34.139Z,2600.00
2018-07-09T05:48:34.067Z,2616.00
2018-07-09T05:49:33.989Z,2624.00
2018-07-09T05:50:33.921Z,2636.00
2018-07-09T05:51:33.848Z,2640.00
2018-07-09T05:52:33.767Z,2652.00
2018-07-09T05:53:33.703Z,2660.00
2018-07-09T05:54:33.619Z,2672.00
2018-07-09T05:55:33.559Z,2676.00
2018-07-09T05:56:33.477Z,2680.00
2018-07-09T05:57:33.400Z,2692.00
2018-07-09T05:58:33.344Z,2696.00
2018-07-09T05:59:33.252Z,2700.00
2018-07-09T06:00:33.195Z,2700.00
2018-07-09T06:01:33.107Z,2696.00
2018-07-09T06:02:33.036Z,2696.00
2018-07-09T06:03:32.967Z,2704.00
2018-07-09T06:04:32.971Z,2712.00
2018-07-09T06:05:32.827Z,2716.00
2018-07-09T06:06:32.747Z,2724.00
2018-07-09T06:07:32.663Z,2732.00
2018-07-09T06:08:32.598Z,2732.00
2018-07-09T06:09:32.528Z,2744.00
2018-07-09T06:10:32.468Z,2744.00
2018-07-09T06:11:32.430Z,2752.00
2018-07-09T06:12:32.302Z,2752.00
2018-07-09T06:13:32.231Z,2760.00
2018-07-09T06:14:32.153Z,2768.00
2018-07-09T06:15:32.085Z,2776.00
2018-07-09T06:16:32.005Z,2788.00
2018-07-09T06:17:31.935Z,2792.00
2018-07-09T06:18:31.859Z,2792.00
2018-07-09T06:19:31.889Z,2800.00
2018-07-09T06:20:31.719Z,2808.00
2018-07-09T06:21:31.639Z,2808.00
2018-07-09T06:22:31.584Z,2820.00
2018-07-09T06:23:31.514Z,2820.00
2018-07-09T06:24:31.429Z,2832.00
2018-07-09T06:25:31.357Z,2840.00
2018-07-09T06:26:31.278Z,2844.00
2018-07-09T06:27:31.205Z,2852.00
2018-07-09T06:28:31.130Z,2856.00
2018-07-09T06:29:31.063Z,2864.00
2018-07-09T06:30:30.985Z,2868.00
2018-07-09T06:31:30.961Z,2880.00
2018-07-09T06:32:30.848Z,2892.00
2018-07-09T06:33:30.776Z,2900.00
2018-07-09T06:34:30.696Z,2900.00
2018-07-09T06:35:30.621Z,2900.00
2018-07-09T06:36:30.553Z,2908.00
2018-07-09T06:37:30.478Z,2916.00
2018-07-09T06:38:30.405Z,2924.00
2018-07-09T06:39:30.333Z,2928.00
2018-07-09T06:40:30.264Z,2936.00
2018-07-09T06:41:30.187Z,2944.00
2018-07-09T06:42:30.121Z,2956.00
2018-07-09T06:43:30.047Z,2960.00
2018-07-09T06:44:29.976Z,2968.00
2018-07-09T06:45:29.917Z,2980.00
2018-07-09T06:46:29.858Z,2984.00
2018-07-09T06:47:29.762Z,2988.00
2018-07-09T06:48:29.679Z,3000.00
2018-07-09T06:49:29.652Z,3008.00
2018-07-09T06:50:29.581Z,3016.00
2018-07-09T06:51:29.466Z,3020.00
2018-07-09T06:52:29.393Z,3032.00
2018-07-09T06:53:29.353Z,3048.00
2018-07-09T06:54:29.242Z,3044.00
2018-07-09T06:55:29.173Z,3040.00
2018-07-09T06:56:29.104Z,3060.00
2018-07-09T06:57:29.035Z,3068.00
2018-07-09T06:58:28.956Z,3068.00
2018-07-09T06:59:28.883Z,3064.00
2018-07-09T07:00:28.812Z,3084.00
2018-07-09T07:01:28.744Z,3104.00
2018-07-09T07:02:28.711Z,3100.00
2018-07-09T07:03:28.607Z,3116.00
2018-07-09T07:04:28.524Z,3128.00
2018-07-09T07:05:28.450Z,3116.00
2018-07-09T07:06:28.392Z,3120.00
2018-07-09T07:07:28.317Z,3124.00
2018-07-09T07:08:28.243Z,3124.00
2018-07-09T07:09:28.169Z,3128.00
2018-07-09T07:10:28.109Z,3144.00
2018-07-09T07:11:28.019Z,3152.00
2018-07-09T07:12:27.951Z,3152.00
2018-07-09T07:13:27.883Z,3148.00
2018-07-09T07:14:27.903Z,3152.00
2018-07-09T07:15:27.732Z,3168.00
2018-07-09T07:16:27.662Z,3176.00
2018-07-09T07:17:27.593Z,3184.00
2018-07-09T07:18:27.584Z,3196.00
2018-07-09T07:19:27.461Z,3196.00
2018-07-09T07:20:27.373Z,3204.00
2018-07-09T07:21:27.303Z,3200.00
2018-07-09T07:22:27.237Z,3204.00
2018-07-09T07:23:27.156Z,3216.00
2018-07-09T07:24:27.104Z,3228.00
2018-07-09T07:25:27.014Z,3228.00
2018-07-09T07:26:27.013Z,3236.00
2018-07-09T07:27:26.887Z,3236.00
2018-07-09T07:28:26.802Z,3248.00
2018-07-09T07:29:26.729Z,3260.00
2018-07-09T07:30:26.664Z,3268.00
2018-07-09T07:31:26.594Z,3284.00
2018-07-09T07:32:26.517Z,3292.00
2018-07-09T07:33:26.449Z,3300.00
2018-07-09T07:34:26.379Z,3316.00
2018-07-09T07:35:26.301Z,3316.00
2018-07-09T07:36:26.254Z,3316.00
2018-07-09T07:37:26.163Z,3320.00
2018-07-09T07:38:26.090Z,3324.00
2018-07-09T07:39:26.081Z,3332.00
2018-07-09T07:40:25.947Z,3332.00
2018-07-09T07:41:25.876Z,3336.00
2018-07-09T07:42:25.802Z,3344.00
2018-07-09T07:43:25.736Z,3356.00
2018-07-09T07:44:25.656Z,3356.00
2018-07-09T07:45:25.592Z,3364.00
2018-07-09T07:46:25.516Z,3364.00
2018-07-09T07:47:25.445Z,3368.00
2018-07-09T07:48:25.398Z,3380.00
2018-07-09T07:49:25.304Z,3392.00
2018-07-09T07:50:25.316Z,3396.00
2018-07-09T07:51:25.162Z,3420.00
2018-07-09T07:52:25.088Z,3444.00
2018-07-09T07:53:25.016Z,3456.00
2018-07-09T07:54:24.954Z,3472.00
2018-07-09T07:55:24.873Z,3476.00
2018-07-09T07:56:24.804Z,3500.00
2018-07-09T07:57:24.737Z,3520.00
2018-07-09T07:58:24.656Z,3524.00
2018-07-09T07:59:24.586Z,3536.00
2018-07-09T08:00:24.524Z,3556.00
2018-07-09T08:01:24.447Z,3584.00
2018-07-09T08:02:24.384Z,3616.00
2018-07-09T08:03:24.302Z,3640.00
2018-07-09T08:04:24.239Z,3660.00
2018-07-09T08:05:24.163Z,3608.00
2018-07-09T08:06:24.089Z,3588.00
2018-07-09T08:07:24.022Z,3632.00
2018-07-09T08:08:23.947Z,3720.00
2018-07-09T08:09:23.933Z,3752.00
2018-07-09T08:10:23.832Z,3768.00
2018-07-09T08:11:47.725Z,3780.00
2018-07-09T08:13:29.534Z,3800.00
2018-07-09T08:14:23.524Z,3812.00
2018-07-09T08:15:23.453Z,3832.00
2018-07-09T08:16:23.388Z,3856.00
2018-07-09T08:17:23.311Z,3888.00
2018-07-09T08:18:23.239Z,3928.00
2018-07-09T08:19:23.181Z,3964.00
2018-07-09T08:20:23.103Z,3996.00
2018-07-09T08:21:23.027Z,4028.00
2018-07-09T08:22:22.960Z,4064.00
2018-07-09T08:23:22.885Z,4088.00
2018-07-09T08:24:22.815Z,4112.00
2018-07-09T08:25:22.827Z,4128.00
2018-07-09T08:26:22.697Z,4164.00
2018-07-09T08:27:22.608Z,4204.00
2018-07-09T08:28:22.534Z,4248.00
2018-07-09T08:29:22.487Z,4280.00
2018-07-09T08:30:22.388Z,4332.00
2018-07-09T08:31:22.463Z,4380.00
2018-07-09T08:32:22.341Z,4364.00
2018-07-09T08:33:22.212Z,4408.00
2018-07-09T08:34:22.184Z,4496.00
2018-07-09T08:35:22.093Z,4524.00
2018-07-09T08:36:22.067Z,4624.00
2018-07-09T08:37:21.904Z,4700.00
2018-07-09T08:38:21.895Z,4820.00
2018-07-09T08:39:23.742Z,4904.00
2018-07-09T08:40:21.725Z,5024.00
2018-07-09T08:41:21.684Z,5108.00
2018-07-09T08:42:21.545Z,5196.00
2018-07-09T08:43:21.490Z,5300.00
2018-07-09T08:44:21.453Z,5384.00
2018-07-09T08:45:21.346Z,5464.00
2018-07-09T08:46:21.333Z,5460.00
2018-07-09T08:47:21.298Z,5636.00
2018-07-09T08:48:21.196Z,5648.00
2018-07-09T08:49:21.124Z,5712.00
2018-07-09T08:50:21.758Z,5880.00
2018-07-09T08:51:21.760Z,5928.00
2018-07-09T08:52:20.906Z,5952.00
2018-07-09T08:53:21.767Z,5928.00
2018-07-09T08:54:20.764Z,5916.00
2018-07-09T08:55:20.759Z,5964.00
2018-07-09T08:56:20.634Z,6004.00
2018-07-09T08:57:20.564Z,6044.00
2018-07-09T08:58:20.494Z,6020.00
2018-07-09T08:59:20.419Z,5948.00
2018-07-09T09:00:20.353Z,5876.00
2018-07-09T09:01:21.204Z,5888.00
2018-07-09T09:02:20.205Z,5876.00
2018-07-09T09:03:20.136Z,5828.00
2018-07-09T09:04:20.758Z,5688.00
2018-07-09T09:05:20.759Z,5568.00
2018-07-09T09:06:19.930Z,5416.00
2018-07-09T09:07:19.859Z,5392.00
2018-07-09T09:08:19.796Z,5392.00
2018-07-09T09:09:19.721Z,5528.00
2018-07-09T09:10:19.660Z,5580.00
2018-07-09T09:11:19.587Z,5592.00
2018-07-09T09:12:20.253Z,5596.00
2018-07-09T09:13:20.266Z,5656.00
2018-07-09T09:14:19.372Z,5660.00
2018-07-09T09:15:19.303Z,5704.00
2018-07-09T09:16:19.236Z,5720.00
2018-07-09T09:17:19.171Z,5776.00
2018-07-09T09:18:19.090Z,5640.00
2018-07-09T09:19:19.025Z,5948.00
2018-07-09T09:20:18.977Z,6084.00
2018-07-09T09:21:18.895Z,6204.00
2018-07-09T09:22:18.825Z,6220.00
2018-07-09T09:23:20.264Z,6008.00
2018-07-09T09:24:18.685Z,6368.00
2018-07-09T09:25:18.618Z,5924.00
2018-07-09T09:26:18.548Z,5840.00
2018-07-09T09:27:18.485Z,6056.00
2018-07-09T09:28:18.409Z,6224.00
2018-07-09T09:29:18.338Z,6368.00
2018-07-09T09:30:18.267Z,6584.00
2018-07-09T09:31:18.299Z,6732.00
2018-07-09T09:32:18.142Z,6980.00
2018-07-09T09:33:18.007Z,6928.00
2018-07-09T09:34:17.993Z,6960.00
2018-07-09T09:35:17.923Z,7088.00
2018-07-09T09:36:17.859Z,7272.00
2018-07-09T09:37:17.792Z,7416.00
2018-07-09T09:38:17.715Z,7276.00
2018-07-09T09:39:18.217Z,7072.00
2018-07-09T09:40:19.270Z,6400.00
2018-07-09T09:41:17.515Z,6356.00
2018-07-09T09:42:17.443Z,6392.00
2018-07-09T09:43:17.384Z,6912.00
2018-07-09T09:44:17.302Z,7116.00
2018-07-09T09:45:17.243Z,6512.00
2018-07-09T09:46:17.773Z,6656.00
2018-07-09T09:47:18.760Z,6700.00
2018-07-09T09:48:18.762Z,6764.00
2018-07-09T09:49:16.967Z,6528.00
2018-07-09T09:50:16.900Z,6384.00
2018-07-09T09:51:17.780Z,6264.00
2018-07-09T09:52:16.756Z,6292.00
2018-07-09T09:53:16.619Z,6344.00
2018-07-09T09:54:16.551Z,6408.00
2018-07-09T09:55:16.493Z,6352.00
2018-07-09T09:56:16.415Z,6268.00
2018-07-09T09:57:16.358Z,6196.00
2018-07-09T09:58:16.282Z,6148.00
2018-07-09T09:59:16.213Z,6312.00
2018-07-09T10:00:16.139Z,6632.00
2018-07-09T10:01:16.078Z,6880.00
2018-07-09T10:02:16.002Z,7048.00
2018-07-09T10:03:15.932Z,7248.00
2018-07-09T10:04:15.867Z,7376.00
2018-07-09T10:05:15.799Z,7512.00
2018-07-09T10:06:15.728Z,7696.00
2018-07-09T10:07:15.681Z,7808.00
2018-07-09T10:08:15.592Z,7944.00
2018-07-09T10:09:15.522Z,8184.00
2018-07-09T10:10:15.458Z,8336.00
2018-07-09T10:11:15.386Z,8524.00
2018-07-09T10:12:15.323Z,8668.00
2018-07-09T10:13:15.247Z,8864.00
2018-07-09T10:14:15.195Z,8956.00
2018-07-09T10:15:15.108Z,8644.00
2018-07-09T10:16:15.038Z,8612.00
2018-07-09T10:17:14.974Z,8128.00
2018-07-09T10:18:14.906Z,8020.00
2018-07-09T10:19:14.840Z,7988.00
2018-07-09T10:20:14.769Z,7928.00
2018-07-09T10:21:14.705Z,7996.00
2018-07-09T10:22:14.634Z,7980.00
2018-07-09T10:23:14.601Z,7980.00
2018-07-09T10:24:14.504Z,8552.00
2018-07-09T10:25:14.429Z,9000.00
2018-07-09T10:26:14.362Z,9348.00
2018-07-09T10:27:14.303Z,9420.00
2018-07-09T10:28:14.234Z,9320.00
2018-07-09T10:29:14.157Z,9392.00
2018-07-09T10:30:14.089Z,9464.00
2018-07-09T10:31:14.725Z,9344.00
2018-07-09T10:32:13.980Z,9664.00
2018-07-09T10:33:13.887Z,9892.00
2018-07-09T10:34:13.826Z,9696.00
2018-07-09T10:35:13.747Z,9544.00
2018-07-09T10:36:13.681Z,9448.00
2018-07-09T10:37:13.612Z,9484.00
2018-07-09T10:38:13.545Z,9284.00
2018-07-09T10:39:13.481Z,9696.00
2018-07-09T10:40:13.411Z,10304.00
2018-07-09T10:41:13.368Z,10288.00
2018-07-09T10:42:13.276Z,10124.00
2018-07-09T10:43:13.207Z,10132.00
2018-07-09T10:44:13.137Z,10280.00
2018-07-09T10:45:13.069Z,10552.00
2018-07-09T10:46:13.003Z,11080.00
2018-07-09T10:47:12.960Z,11200.00
2018-07-09T10:48:12.868Z,10620.00
2018-07-09T10:49:12.810Z,9764.00
2018-07-09T10:50:12.737Z,9488.00
2018-07-09T10:51:12.669Z,8852.00
2018-07-09T10:52:12.599Z,8308.00
2018-07-09T10:53:12.546Z,7512.00
2018-07-09T10:54:12.463Z,7620.00
2018-07-09T10:55:12.414Z,7504.00
2018-07-09T10:56:12.350Z,7276.00
2018-07-09T10:57:12.264Z,7108.00
2018-07-09T10:58:12.195Z,6904.00
2018-07-09T10:59:12.128Z,6724.00
2018-07-09T11:00:12.066Z,6164.00
2018-07-09T11:01:12.007Z,5848.00
2018-07-09T11:02:11.931Z,5632.00
2018-07-09T11:03:11.863Z,5392.00
2018-07-09T11:04:11.798Z,5276.00
2018-07-09T11:05:11.728Z,5188.00
2018-07-09T11:06:11.658Z,5168.00
2018-07-09T11:07:11.589Z,5056.00
2018-07-09T11:08:11.522Z,5080.00
2018-07-09T11:09:11.453Z,4900.00
2018-07-09T11:10:11.408Z,4848.00
2018-07-09T11:11:11.337Z,5324.00
2018-07-09T11:12:11.257Z,5504.00
2018-07-09T11:13:11.186Z,5616.00
2018-07-09T11:14:11.114Z,5836.00
2018-07-09T11:15:11.046Z,6240.00
2018-07-09T11:16:11.020Z,6988.00
2018-07-09T11:17:10.917Z,8040.00
2018-07-09T11:18:10.841Z,8304.00
2018-07-09T11:19:10.784Z,8344.00
2018-07-09T11:20:10.712Z,8392.00
2018-07-09T11:21:10.644Z,7948.00
2018-07-09T11:22:10.587Z,7712.00
2018-07-09T11:23:10.516Z,6720.00
2018-07-09T11:24:10.437Z,6060.00
2018-07-09T11:25:10.370Z,5560.00
2018-07-09T11:26:10.300Z,5200.00
2018-07-09T11:27:10.235Z,4888.00
2018-07-09T11:28:10.164Z,4656.00
2018-07-09T11:29:10.107Z,4532.00
2018-07-09T11:30:10.028Z,4524.00
2018-07-09T11:31:09.963Z,4576.00
2018-07-09T11:32:09.893Z,4708.00
2018-07-09T11:33:09.830Z,4844.00
2018-07-09T11:34:09.758Z,5008.00
2018-07-09T11:35:09.695Z,5192.00
2018-07-09T11:36:09.666Z,5368.00
2018-07-09T11:37:09.563Z,5512.00
2018-07-09T11:38:09.508Z,5636.00
2018-07-09T11:39:09.423Z,5776.00
2018-07-09T11:40:09.374Z,5968.00
2018-07-09T11:41:09.286Z,6616.00
2018-07-09T11:42:09.274Z,7312.00
2018-07-09T11:43:09.145Z,7252.00
2018-07-09T11:44:09.078Z,8584.00
2018-07-09T11:45:09.007Z,8988.00
2018-07-09T11:46:08.940Z,8996.00
2018-07-09T11:47:08.877Z,9988.00
2018-07-09T11:48:08.810Z,9624.00
2018-07-09T11:49:08.737Z,9416.00
2018-07-09T11:50:08.668Z,10364.00
2018-07-09T11:51:08.599Z,11212.00
2018-07-09T11:52:08.580Z,11320.00
2018-07-09T11:53:08.469Z,11228.00
2018-07-09T11:54:08.406Z,11716.00
2018-07-09T11:55:08.333Z,12308.00
2018-07-09T11:56:08.260Z,12344.00
2018-07-09T11:57:08.195Z,11656.00
2018-07-09T11:58:08.122Z,11796.00
2018-07-09T11:59:08.079Z,11160.00
2018-07-09T12:00:07.989Z,11340.00
2018-07-09T12:01:07.920Z,11360.00
2018-07-09T12:02:07.867Z,11012.00
2018-07-09T12:03:07.792Z,11304.00
2018-07-09T12:04:07.716Z,10912.00
2018-07-09T12:05:07.650Z,10944.00
2018-07-09T12:06:07.585Z,11128.00
2018-07-09T12:07:07.513Z,11244.00
2018-07-09T12:08:07.453Z,11188.00
2018-07-09T12:09:07.378Z,10980.00
2018-07-09T12:10:07.339Z,10716.00
2018-07-09T12:11:07.247Z,10504.00
2018-07-09T12:12:07.196Z,10304.00
2018-07-09T12:13:07.109Z,10080.00
2018-07-09T12:14:07.043Z,9816.00
2018-07-09T12:15:06.996Z,9484.00
2018-07-09T12:16:06.912Z,9132.00
2018-07-09T12:17:06.860Z,8860.00
2018-07-09T12:18:06.773Z,8692.00
2018-07-09T12:19:06.712Z,8668.00
2018-07-09T12:20:06.660Z,8748.00
2018-07-09T12:21:06.578Z,8876.00
2018-07-09T12:22:06.508Z,9012.00
2018-07-09T12:23:06.446Z,9184.00
2018-07-09T12:24:06.372Z,9352.00